»·PEaware :: AAL405 KBFL-KSFO

AAL405 :: KBFL-KSFO

FLIGHT INFORMATION

Flight Status: Arrived
Operator:
American Airlines
More flights by this operator :: More flights under this callsign
Pilot: Anonymous 39875 (39875)
Aircraft: EMBRAER EMB-170/175
(E170)
More flights by this aircraft type
Origin: KBFL Meadows
United States
Destination: KSFO San Francisco Intl
United States
More flights between these airports :: More routes between these airports
Route: MEADO5 AVE SERFR SERFR4
File this flight plan on PilotEdge
Remarks: RMK / SIMBRIEF
Altitude:
(Current/Filed)
22,000ft
Speed:
(Current/Filed)
354kts
Departed: 24-Jul-22 04:41 PM
Arrived: 24-Jul-22 05:22 PM
Distance/Time
Traveled:
207nm/0:41
Distance/Time
To Go:
Arrived

Flight Plot

Page will automatically refresh every two minutes.

Flight plan parsing failed; only flown route is shown


Map Options




Map Legend


Flown Route
Filed Route
Departure Airport
Arrival Airport
Navaid (VOR, NDB)
Fix

Horizontal Profiles

Position Reports

Time Latitude Longitude Heading Altitude Ground
Speed
24-Jul-22 16:24 35.436905 -119.054872 44 517ft 0kts
24-Jul-22 16:25 35.436905 -119.054872 44 517ft 0kts
24-Jul-22 16:26 35.436905 -119.054872 44 517ft 0kts
24-Jul-22 16:27 35.436905 -119.054872 44 517ft 0kts
24-Jul-22 16:28 35.436905 -119.054872 44 517ft 0kts
24-Jul-22 16:29 35.436905 -119.054872 44 517ft 0kts
24-Jul-22 16:30 35.436905 -119.054872 44 517ft 0kts
24-Jul-22 16:31 35.436905 -119.054872 44 517ft 0kts
24-Jul-22 16:32 35.436798 -119.055511 135 517ft 1kts
24-Jul-22 16:33 35.436828 -119.055548 135 517ft 0kts
24-Jul-22 16:34 35.436828 -119.055548 135 517ft 0kts
24-Jul-22 16:35 35.436828 -119.055548 135 517ft 0kts
24-Jul-22 16:36 35.434581 -119.054809 135 517ft 25kts
24-Jul-22 16:37 35.429798 -119.048994 134 517ft 17kts
24-Jul-22 16:38 35.425978 -119.044457 146 517ft 11kts
24-Jul-22 16:39 35.425532 -119.045398 266 517ft 10kts
24-Jul-22 16:40 35.447078 -119.072741 313 1613ft 224kts
24-Jul-22 16:41 35.492685 -119.131470 312 4600ft 248kts
24-Jul-22 16:42 35.538810 -119.197418 289 7294ft 260kts
24-Jul-22 16:43 35.554875 -119.286886 280 10324ft 288kts
24-Jul-22 16:44 35.571667 -119.395133 279 12984ft 348kts
24-Jul-22 16:45 35.589270 -119.513598 279 12999ft 354kts
24-Jul-22 16:46 35.607103 -119.632738 279 13047ft 353kts
24-Jul-22 16:47 35.624945 -119.751208 278 15916ft 359kts
24-Jul-22 16:48 35.641003 -119.874854 277 18920ft 375kts
24-Jul-22 16:49 35.657645 -120.004259 277 21829ft 394kts
24-Jul-22 16:50 35.685706 -120.140138 289 21900ft 424kts
24-Jul-22 16:51 35.732520 -120.275115 292 21902ft 430kts
24-Jul-22 16:52 35.781561 -120.409870 292 21905ft 432kts
24-Jul-22 16:53 35.829714 -120.545274 291 21917ft 432kts
24-Jul-22 16:54 35.876330 -120.681663 290 21915ft 432kts
24-Jul-22 16:55 35.921996 -120.818725 290 21914ft 432kts
24-Jul-22 16:56 35.965199 -120.957202 288 21915ft 432kts
24-Jul-22 16:57 36.004951 -121.096764 287 21920ft 432kts
24-Jul-22 16:58 36.044260 -121.237622 287 21929ft 433kts
24-Jul-22 16:59 36.090009 -121.374535 307 21941ft 436kts
24-Jul-22 17:00 36.185382 -121.466754 328 21970ft 437kts
24-Jul-22 17:01 36.290310 -121.542518 329 21972ft 437kts
24-Jul-22 17:03 36.391318 -121.617637 328 21279ft 410kts
24-Jul-22 17:04 36.485863 -121.691471 327 20274ft 396kts
24-Jul-22 17:05 36.577983 -121.764345 327 19232ft 388kts
24-Jul-22 17:06 36.668064 -121.835748 327 18033ft 381kts
24-Jul-22 17:07 36.758944 -121.900340 340 16819ft 373kts
24-Jul-22 17:08 36.858579 -121.929841 349 15050ft 363kts
24-Jul-22 17:09 36.956052 -121.954440 345 13253ft 354kts
24-Jul-22 17:10 37.049466 -121.989826 342 11447ft 346kts
24-Jul-22 17:11 37.134379 -122.023924 342 9626ft 306kts
24-Jul-22 17:12 37.212954 -122.054975 342 8193ft 286kts
24-Jul-22 17:13 37.287538 -122.084294 341 7830ft 283kts
24-Jul-22 17:14 37.362211 -122.111977 343 6813ft 278kts
24-Jul-22 17:15 37.434987 -122.136262 344 4979ft 253kts
24-Jul-22 17:16 37.495553 -122.170780 336 3265ft 233kts
24-Jul-22 17:17 37.547488 -122.201310 308 2145ft 183kts
24-Jul-22 17:18 37.567324 -122.252762 293 1799ft 146kts
24-Jul-22 17:19 37.585373 -122.296380 298 1110ft 131kts
24-Jul-22 17:20 37.601613 -122.334509 299 465ft 118kts
24-Jul-22 17:21 37.615906 -122.368276 299 23ft 61kts
24-Jul-22 17:22 37.618997 -122.377019 274 23ft 12kts
24-Jul-22 17:23 37.617522 -122.379446 170 23ft 14kts
24-Jul-22 17:24 37.615667 -122.381044 299 23ft 8kts
24-Jul-22 17:25 37.616823 -122.381952 23 23ft 3kts
24-Jul-22 17:26 37.616894 -122.381912 23 23ft 0kts
24-Jul-22 17:27 37.616894 -122.381912 23 23ft 0kts
24-Jul-22 17:28 37.616894 -122.381912 23 23ft 0kts

Navigation Log

Ident Type
Flight plan parsing failed, navigation log unavailable